Time;durP1;ratioP1;P1;durP2;ratioP2;P2;SDS_P1;SDS_P2;PMS_P1;PMS_P2;Temp;Humidity;BMP_temperature;BMP_pressure;BME280_temperature;BME280_humidity;BME280_pressure;Samples;Min_cycle;Max_cycle;Signal;HPM_P1;HPM_P2
2022/05/14 00:01:42;;;;;;;3.43;3.13;;;16.10;73.80;16.40;96894.00;;;;5082258;28;20279;-84
2022/05/14 00:04:10;;;;;;;3.57;3.27;;;16.10;73.90;16.40;96896.00;;;;5064923;28;20563;-84
2022/05/14 00:06:39;;;;;;;4.10;2.80;;;16.00;73.80;16.30;96898.00;;;;5068220;28;20216;-84
2022/05/14 00:09:07;;;;;;;3.77;3.47;;;16.00;73.70;16.30;96899.00;;;;5073936;28;20192;-84
2022/05/14 00:14:22;;;;;;;3.27;2.97;;;15.90;73.80;16.20;96897.00;;;;5042083;28;20534;-85
2022/05/14 00:16:51;;;;;;;2.97;2.70;;;15.90;73.80;16.20;96891.00;;;;5073816;28;20240;-84
2022/05/14 00:19:18;;;;;;;3.47;3.17;;;15.80;73.80;16.10;96889.00;;;;5067798;28;20213;-84
2022/05/14 00:21:47;;;;;;;3.40;3.10;;;15.80;73.80;16.10;96889.00;;;;5070886;28;20251;-85
2022/05/14 00:24:14;;;;;;;4.33;3.50;;;15.80;74.10;16.10;96887.00;;;;5068077;28;20200;-84
2022/05/14 00:26:41;;;;;;;4.00;3.00;;;15.70;74.40;16.00;96889.00;;;;5071196;28;20306;-84
2022/05/14 00:29:09;;;;;;;4.67;3.43;;;15.70;74.70;16.00;96877.00;;;;5065975;28;20208;-85
2022/05/14 00:31:37;;;;;;;6.23;3.37;;;15.60;75.00;15.90;96879.00;;;;5075231;28;20602;-84
2022/05/14 00:34:06;;;;;;;3.43;2.57;;;15.60;75.10;15.80;96884.00;;;;5077681;28;20243;-84
2022/05/14 00:36:36;;;;;;;5.33;2.90;;;15.60;75.20;15.80;96882.00;;;;5061597;28;20631;-84
2022/05/14 00:39:05;;;;;;;4.33;3.00;;;15.60;75.10;15.80;96886.00;;;;5076691;28;20229;-84
2022/05/14 00:41:32;;;;;;;2.90;2.70;;;15.50;75.10;15.80;96883.00;;;;5069814;28;20294;-84
2022/05/14 00:44:01;;;;;;;3.87;3.37;;;15.50;75.00;15.70;96873.00;;;;5071078;28;20192;-84
2022/05/14 00:46:45;;;;;;;3.83;3.53;;;15.50;75.10;15.70;96883.00;;;;5072330;28;20247;-84
2022/05/14 00:49:14;;;;;;;6.37;3.13;;;15.50;75.50;15.70;96883.00;;;;5071450;28;20272;-84
2022/05/14 00:51:45;;;;;;;4.53;3.77;;;15.50;75.50;15.70;96882.00;;;;5078098;28;20536;-83
2022/05/14 00:54:22;;;;;;;4.13;3.10;;;15.40;75.50;15.70;96881.00;;;;5078059;28;20200;-84
2022/05/14 00:56:57;;;;;;;4.00;3.60;;;15.50;75.60;15.70;96884.00;;;;5078377;28;20241;-84
2022/05/14 00:59:27;;;;;;;3.83;3.43;;;15.40;75.50;15.70;96883.00;;;;5071355;28;20210;-84
2022/05/14 01:01:58;;;;;;;3.50;3.13;;;15.40;75.50;15.70;96879.00;;;;5072004;28;20223;-84
2022/05/14 01:04:27;;;;;;;4.37;2.90;;;15.40;75.50;15.70;96889.00;;;;5069427;28;20636;-84
2022/05/14 01:07:03;;;;;;;4.03;3.30;;;15.40;75.30;15.70;96883.00;;;;5062659;28;20239;-84
2022/05/14 01:09:33;;;;;;;3.07;2.87;;;15.40;75.20;15.70;96887.00;;;;5065703;28;20231;-84
2022/05/14 01:12:05;;;;;;;3.23;3.00;;;15.40;75.00;15.70;96882.00;;;;5065489;28;20234;-84
2022/05/14 01:14:35;;;;;;;3.50;3.10;;;15.40;74.90;15.70;96882.00;;;;5076877;28;20260;-84
2022/05/14 01:17:06;;;;;;;3.13;2.83;;;15.30;75.60;15.60;96872.00;;;;5069322;28;20306;-84
2022/05/14 01:19:37;;;;;;;3.73;3.10;;;15.30;75.00;15.60;96878.00;;;;5065377;28;20193;-84
2022/05/14 01:22:34;;;;;;;3.73;3.43;;;15.30;75.10;15.60;96873.00;;;;5074931;28;20224;-84
2022/05/14 01:28:01;;;;;;;4.97;2.67;;;15.30;75.40;15.60;96869.00;;;;5069663;28;20223;-84
2022/05/14 01:30:32;;;;;;;7.10;2.80;;;15.30;75.00;15.50;96869.00;;;;5061306;28;20216;-84
2022/05/14 01:33:08;;;;;;;5.53;3.20;;;15.20;74.90;15.50;96868.00;;;;5069343;28;20219;-84
2022/05/14 01:35:38;;;;;;;3.00;2.80;;;15.20;75.00;15.50;96865.00;;;;5069609;28;20194;-84
2022/05/14 01:38:06;;;;;;;3.40;3.10;;;15.20;75.20;15.50;96866.00;;;;5060049;28;20229;-84
2022/05/14 01:40:33;;;;;;;3.10;2.90;;;15.20;75.20;15.50;96862.00;;;;5063289;22;20275;-85
2022/05/14 01:43:03;;;;;;;3.23;2.93;;;15.20;75.10;15.50;96867.00;;;;5015445;28;20212;-84
2022/05/14 01:45:30;;;;;;;4.97;2.80;;;15.10;74.90;15.40;96861.00;;;;5034492;28;20225;-84
2022/05/14 01:47:57;;;;;;;3.33;3.03;;;15.10;74.70;15.40;96867.00;;;;5016251;28;20663;-84
2022/05/14 01:50:24;;;;;;;2.93;2.70;;;15.10;74.60;15.40;96867.00;;;;5014529;28;20204;-85
2022/05/14 01:52:52;;;;;;;3.10;2.80;;;15.10;74.60;15.40;96863.00;;;;5012986;28;20208;-84
2022/05/14 01:55:19;;;;;;;3.33;3.00;;;15.00;74.60;15.30;96861.00;;;;5013936;28;20214;-86
2022/05/14 01:57:46;;;;;;;3.43;2.93;;;15.00;74.80;15.30;96862.00;;;;5026259;28;20197;-85
2022/05/14 02:00:18;;;;;;;3.53;3.07;;;15.00;75.10;15.20;96862.00;;;;5030060;28;20206;-84
2022/05/14 02:02:46;;;;;;;3.10;2.83;;;14.90;75.30;15.20;96858.00;;;;5013597;28;20309;-85
2022/05/14 02:05:13;;;;;;;3.70;2.63;;;14.90;75.40;15.10;96862.00;;;;5012998;28;20222;-85
2022/05/14 02:07:41;;;;;;;3.93;3.10;;;14.90;75.70;15.10;96861.00;;;;5013015;28;20648;-85
2022/05/14 02:10:09;;;;;;;3.17;2.70;;;14.80;75.70;15.00;96864.00;;;;5013437;28;20198;-84
2022/05/14 02:12:37;;;;;;;2.97;2.70;;;14.80;75.60;15.00;96864.00;;;;5013530;28;20196;-85
2022/05/14 02:15:05;;;;;;;3.03;2.70;;;14.80;75.40;15.00;96865.00;;;;5012909;28;20204;-85
2022/05/14 02:17:33;;;;;;;2.43;2.13;;;14.80;75.30;15.00;96863.00;;;;5013046;28;20198;-85
2022/05/14 02:20:00;;;;;;;2.70;2.50;;;14.80;75.20;15.00;96861.00;;;;5012630;28;20202;-85
2022/05/14 02:22:27;;;;;;;2.60;2.40;;;14.70;75.10;15.00;96856.00;;;;5012567;28;20236;-85
2022/05/14 02:24:54;;;;;;;2.80;2.60;;;14.70;75.30;15.00;96856.00;;;;5012424;28;20206;-85
2022/05/14 02:27:22;;;;;;;3.23;2.20;;;14.70;75.40;15.00;96862.00;;;;5012843;28;20853;-85
2022/05/14 02:29:53;;;;;;;2.47;2.27;;;14.70;75.30;15.00;96857.00;;;;5012844;28;20205;-85
2022/05/14 02:32:23;;;;;;;2.57;2.30;;;14.70;75.10;15.00;96854.00;;;;5012922;28;20206;-85
2022/05/14 02:34:53;;;;;;;3.17;2.70;;;14.70;75.00;15.00;96858.00;;;;5009519;28;20592;-84
2022/05/14 02:37:26;;;;;;;3.33;2.50;;;14.70;75.10;15.00;96858.00;;;;5012498;28;20206;-86
2022/05/14 02:39:54;;;;;;;3.27;2.23;;;14.60;75.20;14.90;96855.00;;;;5005148;28;20218;-85
2022/05/14 02:42:21;;;;;;;2.97;2.67;;;14.60;75.20;14.90;96850.00;;;;5012442;28;20226;-85
2022/05/14 02:44:48;;;;;;;3.93;2.60;;;14.60;75.20;14.90;96853.00;;;;5012778;28;20201;-86
2022/05/14 02:47:15;;;;;;;2.47;2.27;;;14.60;75.20;14.90;96852.00;;;;5012828;28;20222;-84
2022/05/14 02:49:43;;;;;;;2.70;2.13;;;14.60;75.20;14.90;96852.00;;;;5006076;28;20190;-86
2022/05/14 02:52:12;;;;;;;3.23;2.17;;;14.50;75.10;14.90;96858.00;;;;5020848;28;20205;-85
2022/05/14 02:54:40;;;;;;;2.70;2.50;;;14.50;75.10;14.90;96865.00;;;;5014121;28;20229;-84
2022/05/14 02:57:08;;;;;;;2.57;2.37;;;14.50;75.30;14.90;96866.00;;;;5012191;28;20711;-85
2022/05/14 02:59:35;;;;;;;2.27;2.07;;;14.50;75.50;14.80;96863.00;;;;5012562;28;20646;-85
2022/05/14 03:02:03;;;;;;;2.47;2.27;;;14.50;75.60;14.90;96858.00;;;;5016274;28;20708;-85
2022/05/14 03:04:36;;;;;;;2.80;2.60;;;14.50;75.80;14.90;96859.00;;;;5027966;28;20210;-85
2022/05/14 03:07:06;;;;;;;2.63;2.43;;;14.50;76.00;14.90;96850.00;;;;5015079;28;20222;-85
2022/05/14 03:09:35;;;;;;;3.00;2.57;;;14.50;76.30;14.90;96849.00;;;;5012895;28;20672;-84
2022/05/14 03:12:03;;;;;;;2.57;2.43;;;14.50;76.60;14.90;96848.00;;;;5010745;28;20202;-85
2022/05/14 03:14:30;;;;;;;3.40;2.70;;;14.50;76.60;14.90;96849.00;;;;5019967;28;20197;-85
2022/05/14 03:16:57;;;;;;;3.60;3.30;;;14.50;76.60;14.90;96847.00;;;;5003481;28;20221;-84
2022/05/14 03:19:25;;;;;;;3.00;2.70;;;14.50;76.50;14.90;96850.00;;;;5011342;28;20198;-85
2022/05/14 03:21:53;;;;;;;2.53;2.33;;;14.60;76.60;14.90;96856.00;;;;5004593;28;20191;-85
2022/05/14 03:24:20;;;;;;;2.77;2.57;;;14.60;76.60;14.90;96864.00;;;;5008849;28;20209;-84
2022/05/14 03:26:49;;;;;;;2.90;2.70;;;14.60;76.60;14.90;96863.00;;;;5004228;28;20225;-85
2022/05/14 03:29:16;;;;;;;2.77;2.50;;;14.60;76.50;14.90;96863.00;;;;5012640;28;20202;-85
2022/05/14 03:31:43;;;;;;;2.60;2.40;;;14.60;76.40;14.90;96869.00;;;;5012386;28;20660;-86
2022/05/14 03:34:12;;;;;;;2.60;2.40;;;14.60;76.40;14.90;96869.00;;;;5008198;28;20217;-84
2022/05/14 03:36:39;;;;;;;2.70;2.50;;;14.60;76.70;15.00;96870.00;;;;5005343;28;20249;-85
2022/05/14 03:39:07;;;;;;;2.80;2.50;;;14.60;76.70;15.00;96871.00;;;;5020914;28;20209;-85
2022/05/14 03:41:35;;;;;;;6.13;2.33;;;14.60;76.80;15.00;96877.00;;;;5013067;28;20216;-85
2022/05/14 03:44:04;;;;;;;2.90;2.53;;;14.70;76.80;15.00;96880.00;;;;5004187;28;20210;-85
2022/05/14 03:46:31;;;;;;;3.90;2.27;;;14.70;76.80;15.00;96883.00;;;;5010624;28;20595;-85
2022/05/14 03:48:58;;;;;;;2.63;2.43;;;14.70;76.90;15.10;96883.00;;;;5021021;28;20771;-85
2022/05/14 03:51:25;;;;;;;2.47;2.27;;;14.70;77.00;15.10;96881.00;;;;5016072;28;20535;-85
2022/05/14 03:53:52;;;;;;;2.83;2.63;;;14.70;77.00;15.10;96881.00;;;;5022369;28;20201;-85
2022/05/14 03:56:19;;;;;;;2.57;2.37;;;14.70;77.10;15.20;96884.00;;;;5015392;28;20229;-85
2022/05/14 03:58:46;;;;;;;2.83;2.13;;;14.80;77.20;15.20;96885.00;;;;5015718;28;20277;-85
2022/05/14 04:01:15;;;;;;;2.37;2.17;;;14.80;77.90;15.20;96892.00;;;;5014385;28;20208;-85
2022/05/14 04:03:43;;;;;;;2.70;2.50;;;14.80;77.10;15.20;96884.00;;;;5016829;28;20221;-86
2022/05/14 04:06:10;;;;;;;3.83;2.50;;;14.80;77.00;15.20;96880.00;;;;5029897;28;20638;-86
2022/05/14 04:08:37;;;;;;;2.43;2.30;;;14.80;77.00;15.30;96885.00;;;;5013799;28;20198;-84
2022/05/14 04:11:05;;;;;;;3.10;2.30;;;14.90;77.20;15.20;96882.00;;;;5014795;28;20205;-86
2022/05/14 04:13:32;;;;;;;2.97;2.77;;;14.90;77.20;15.30;96885.00;;;;5014973;28;20202;-85
2022/05/14 04:16:00;;;;;;;2.90;2.57;;;14.90;77.30;15.30;96886.00;;;;5014592;28;20695;-86
2022/05/14 04:18:28;;;;;;;3.23;2.30;;;14.90;77.40;15.30;96884.00;;;;5008015;28;20198;-86
2022/05/14 04:20:58;;;;;;;2.17;2.00;;;14.90;77.50;15.30;96888.00;;;;5015442;28;20208;-85
2022/05/14 04:23:28;;;;;;;2.17;2.07;;;14.90;77.50;15.40;96892.00;;;;4999269;28;20225;-86
2022/05/14 04:25:55;;;;;;;2.47;2.20;;;15.00;77.50;15.40;96888.00;;;;5015273;28;20222;-86
2022/05/14 04:28:23;;;;;;;2.60;2.40;;;15.00;77.50;15.50;96897.00;;;;5014780;28;20571;-86
2022/05/14 04:30:54;;;;;;;2.97;2.30;;;15.10;77.60;15.50;96894.00;;;;5020520;28;20205;-86
2022/05/14 04:33:24;;;;;;;3.10;2.33;;;15.20;77.80;15.60;96883.00;;;;5003592;28;20218;-85
2022/05/14 04:35:52;;;;;;;3.00;2.20;;;15.10;77.70;15.70;96882.00;;;;5015012;28;20221;-86
2022/05/14 04:38:20;;;;;;;2.03;1.93;;;15.10;77.80;15.70;96882.00;;;;5019485;28;20205;-86
2022/05/14 04:40:47;;;;;;;2.17;1.97;;;15.20;77.90;15.70;96891.00;;;;5017472;28;20197;-85
2022/05/14 04:43:15;;;;;;;2.70;2.20;;;15.30;78.00;15.80;96890.00;;;;5016857;28;20222;-85
2022/05/14 04:45:43;;;;;;;4.23;2.33;;;15.30;78.00;15.90;96896.00;;;;5014763;28;20217;-85
2022/05/14 04:48:12;;;;;;;4.40;2.60;;;15.40;78.20;15.90;96897.00;;;;5015362;28;20198;-85
2022/05/14 04:50:39;;;;;;;2.30;2.07;;;15.40;78.20;16.00;96896.00;;;;5012933;28;20198;-85
2022/05/14 04:53:09;;;;;;;3.83;2.23;;;15.40;78.20;16.10;96902.00;;;;5015161;28;20309;-84
2022/05/14 04:55:36;;;;;;;2.80;2.20;;;15.50;78.20;16.10;96905.00;;;;5011319;28;20228;-85
2022/05/14 04:58:07;;;;;;;2.30;2.10;;;15.60;78.20;16.20;96907.00;;;;5015397;28;20197;-85
2022/05/14 05:00:35;;;;;;;2.83;2.50;;;15.60;78.90;16.20;96908.00;;;;5015007;28;20194;-85
2022/05/14 05:03:17;;;;;;;3.20;2.23;;;15.70;78.30;16.30;96909.00;;;;5010969;28;20222;-84
2022/05/14 05:05:44;;;;;;;3.17;2.40;;;15.70;78.30;16.30;96909.00;;;;5016811;28;20309;-85
2022/05/14 05:08:12;;;;;;;3.70;2.20;;;15.80;78.30;16.40;96914.00;;;;5028452;28;20202;-85
2022/05/14 05:10:40;;;;;;;2.00;1.90;;;15.80;78.30;16.40;96912.00;;;;5014639;28;20201;-85
2022/05/14 05:13:12;;;;;;;2.10;1.90;;;15.90;78.20;16.40;96916.00;;;;5019574;28;20572;-85
2022/05/14 05:15:40;;;;;;;2.30;2.20;;;15.90;78.20;16.50;96917.00;;;;5014585;28;20220;-85
2022/05/14 05:18:09;;;;;;;2.20;2.00;;;16.00;78.00;16.50;96921.00;;;;5027407;28;20204;-85
2022/05/14 05:20:40;;;;;;;2.57;2.37;;;16.00;77.90;16.50;96915.00;;;;5026943;28;20284;-85
2022/05/14 05:23:07;;;;;;;2.17;1.97;;;16.00;77.90;16.60;96922.00;;;;5020125;28;20222;-85
2022/05/14 05:25:36;;;;;;;2.70;2.50;;;16.00;77.90;16.60;96914.00;;;;5014057;28;20595;-88
2022/05/14 05:28:03;;;;;;;2.20;2.00;;;16.10;78.10;16.60;96918.00;;;;5014212;28;20208;-87
2022/05/14 05:30:31;;;;;;;2.47;2.27;;;16.10;78.10;16.70;96917.00;;;;5014163;28;20205;-87
2022/05/14 05:33:00;;;;;;;4.20;2.40;;;16.10;78.10;16.70;96921.00;;;;5014155;28;20206;-87
2022/05/14 05:35:28;;;;;;;2.33;2.13;;;16.10;78.10;16.80;96918.00;;;;5013587;28;20222;-88
2022/05/14 05:37:55;;;;;;;2.60;2.40;;;16.20;78.30;16.90;96922.00;;;;5013584;28;20198;-87
2022/05/14 05:40:22;;;;;;;2.57;2.40;;;16.20;78.30;16.90;96925.00;;;;5013700;28;20205;-87
2022/05/14 05:42:51;;;;;;;2.30;2.20;;;16.30;78.40;16.90;96924.00;;;;5013502;28;20229;-88
2022/05/14 05:45:19;;;;;;;2.33;2.20;;;16.30;78.40;17.00;96930.00;;;;5013453;28;20218;-87
2022/05/14 05:47:46;;;;;;;2.30;2.10;;;16.40;78.30;17.00;96926.00;;;;5013591;28;20276;-87
2022/05/14 05:50:14;;;;;;;2.37;2.27;;;16.40;78.20;17.00;96928.00;;;;5013671;28;20197;-89
2022/05/14 05:52:42;;;;;;;2.47;2.27;;;16.40;78.20;17.10;96929.00;;;;5009406;28;20210;-88
2022/05/14 05:57:56;;;;;;;2.93;2.20;;;16.50;78.20;17.10;96932.00;;;;5013744;28;20193;-88
2022/05/14 06:00:26;;;;;;;2.20;2.10;;;16.50;78.20;17.20;96936.00;;;;5012706;28;20655;-88
2022/05/14 06:02:54;;;;;;;3.10;2.17;;;16.60;78.30;17.20;96936.00;;;;5012620;28;20206;-88
2022/05/14 06:05:21;;;;;;;2.23;2.03;;;16.60;78.30;17.30;96931.00;;;;5022442;28;20225;-88
2022/05/14 06:07:49;;;;;;;2.10;1.90;;;16.60;78.40;17.30;96929.00;;;;5025659;28;20202;-88
2022/05/14 06:10:20;;;;;;;2.63;2.43;;;16.70;78.50;17.40;96941.00;;;;5013398;28;20578;-89
2022/05/14 06:12:47;;;;;;;2.27;2.17;;;16.70;78.50;17.40;96933.00;;;;5013581;28;20190;-88
2022/05/14 06:15:48;;;;;;;2.67;2.47;;;16.80;78.60;17.50;96943.00;;;;5012998;28;20296;-88
2022/05/14 06:18:15;;;;;;;2.40;2.30;;;16.90;79.10;17.60;96937.00;;;;5012287;28;20236;-87
2022/05/14 06:20:43;;;;;;;2.50;2.30;;;16.90;78.90;17.60;96942.00;;;;5013299;28;20204;-88
2022/05/14 06:23:10;;;;;;;3.80;2.37;;;17.00;79.00;17.70;96933.00;;;;5012976;28;20573;-87
2022/05/14 06:25:37;;;;;;;3.00;2.80;;;17.00;79.10;17.70;96944.00;;;;5012857;28;20220;-87
2022/05/14 06:28:07;;;;;;;2.97;2.77;;;17.10;79.20;17.80;96944.00;;;;5013347;28;20644;-87
2022/05/14 06:30:38;;;;;;;4.03;2.63;;;17.20;79.20;17.90;96941.00;;;;5011591;28;20208;-87
2022/05/14 06:33:07;;;;;;;3.50;2.57;;;17.20;78.80;18.00;96951.00;;;;5013081;28;20182;-87
2022/05/14 06:35:35;;;;;;;2.90;2.33;;;17.30;78.50;18.00;96952.00;;;;5012045;28;20722;-88
2022/05/14 06:38:03;;;;;;;3.33;3.03;;;17.30;77.90;18.10;96950.00;;;;5013046;28;20204;-87
2022/05/14 06:40:30;;;;;;;3.60;2.20;;;17.40;77.50;18.20;96944.00;;;;5012721;28;20233;-87
2022/05/14 06:42:58;;;;;;;3.17;2.77;;;17.50;77.50;18.30;96949.00;;;;5012860;28;20228;-88
2022/05/14 06:45:25;;;;;;;3.50;2.97;;;17.60;77.80;18.40;96951.00;;;;4999416;28;20222;-89
2022/05/14 06:47:54;;;;;;;5.47;3.10;;;17.70;77.70;18.60;96950.00;;;;5012480;28;20537;-88
2022/05/14 06:50:22;;;;;;;3.77;3.43;;;17.80;77.60;18.70;96953.00;;;;5016053;28;20212;-88
2022/05/14 06:52:56;;;;;;;3.07;2.87;;;17.90;77.80;18.90;96954.00;;;;5012726;28;20201;-87
2022/05/14 06:55:27;;;;;;;3.47;3.17;;;18.00;77.40;19.00;96957.00;;;;5007014;28;20217;-88
2022/05/14 06:57:55;;;;;;;3.93;3.40;;;18.20;77.00;19.20;96957.00;;;;5013031;28;20207;-88
2022/05/14 07:00:23;;;;;;;2.87;2.57;;;18.30;77.40;19.40;96958.00;;;;5012931;28;20198;-87
2022/05/14 07:06:37;;;;;;;3.30;2.40;;;18.50;77.40;19.50;96963.00;;;;5012485;28;20205;-88
2022/05/14 07:08:26;;;;;;;5.27;3.07;;;18.80;76.20;19.90;96960.00;;;;5012695;28;20200;-87
2022/05/14 07:10:53;;;;;;;4.03;2.70;;;18.90;76.20;20.00;96959.00;;;;5012927;28;20209;-88
2022/05/14 07:13:20;;;;;;;2.80;2.60;;;19.10;76.60;20.20;96969.00;;;;5015211;28;20695;-88
2022/05/14 07:15:47;;;;;;;3.47;2.90;;;19.30;75.40;20.40;96972.00;;;;5016496;28;20236;-88
2022/05/14 07:18:16;;;;;;;3.23;2.80;;;19.40;74.60;20.60;96965.00;;;;5008743;28;20203;-88
2022/05/14 07:20:43;;;;;;;2.90;2.60;;;19.60;73.90;20.80;96967.00;;;;5012389;28;20204;-87
2022/05/14 07:23:10;;;;;;;3.00;2.80;;;19.70;73.60;20.90;96977.00;;;;5015944;28;20207;-88
2022/05/14 07:25:37;;;;;;;5.53;3.17;;;19.90;73.10;21.20;96972.00;;;;5011856;28;20214;-87
2022/05/14 07:28:05;;;;;;;4.97;3.10;;;20.10;73.60;21.40;96966.00;;;;5015324;28;20198;-87
2022/05/14 07:30:32;;;;;;;4.13;2.80;;;20.30;72.60;21.60;96968.00;;;;5016172;28;20284;-87
2022/05/14 07:32:59;;;;;;;3.63;3.10;;;20.50;72.00;21.90;96962.00;;;;5016022;28;20202;-87
2022/05/14 07:35:29;;;;;;;3.67;2.87;;;20.70;72.40;22.10;96964.00;;;;5015243;28;20726;-88
2022/05/14 07:38:02;;;;;;;3.00;2.80;;;20.90;71.50;22.30;96960.00;;;;5014535;28;20658;-88
2022/05/14 07:40:33;;;;;;;3.07;2.33;;;21.20;70.80;22.50;96967.00;;;;5014345;28;20271;-89
2022/05/14 07:43:05;;;;;;;2.60;1.97;;;21.30;68.90;22.70;96978.00;;;;5012718;28;20194;-88
2022/05/14 07:45:36;;;;;;;3.53;2.20;;;21.50;67.70;23.00;96968.00;;;;5015227;28;20809;-88
2022/05/14 07:48:09;;;;;;;3.13;1.90;;;21.70;67.60;23.20;96969.00;;;;5010185;28;20205;-88
2022/05/14 07:50:39;;;;;;;3.07;2.00;;;21.90;67.00;23.40;96960.00;;;;5015086;28;20532;-87
2022/05/14 07:53:07;;;;;;;4.83;2.17;;;22.10;66.20;23.60;96963.00;;;;5014631;28;20285;-87
2022/05/14 07:55:34;;;;;;;3.33;1.97;;;22.30;64.30;23.70;96963.00;;;;5036089;22;20217;-86
2022/05/14 07:58:04;;;;;;;2.60;1.63;;;22.50;63.50;23.90;96968.00;;;;5081928;28;20560;-87
2022/05/14 08:00:31;;;;;;;2.73;1.87;;;22.60;63.60;24.00;96966.00;;;;5083797;28;20318;-87
2022/05/14 08:02:58;;;;;;;1.40;1.30;;;22.70;63.80;24.20;96973.00;;;;5078448;28;20197;-87
2022/05/14 08:05:27;;;;;;;3.57;1.80;;;22.90;62.30;24.40;96963.00;;;;5084681;28;20689;-87
2022/05/14 08:07:55;;;;;;;5.70;1.60;;;23.00;62.00;24.60;96957.00;;;;5089048;28;20289;-87
2022/05/14 08:10:23;;;;;;;4.00;1.63;;;23.10;61.20;24.80;96969.00;;;;5078273;28;20203;-86
2022/05/14 08:12:54;;;;;;;1.37;1.20;;;23.30;61.20;25.00;96967.00;;;;5089976;28;20306;-87
2022/05/14 08:15:24;;;;;;;1.93;1.33;;;23.40;60.40;25.20;96968.00;;;;5081040;28;20194;-87
2022/05/14 08:17:51;;;;;;;1.37;1.20;;;23.50;59.90;25.40;96967.00;;;;5079613;28;20194;-87
2022/05/14 08:20:18;;;;;;;1.40;1.30;;;23.70;59.80;25.70;96965.00;;;;5078022;28;20198;-87
2022/05/14 08:25:32;;;;;;;1.50;1.40;;;24.00;60.30;26.20;96973.00;;;;5080389;28;20241;-88
2022/05/14 08:28:00;;;;;;;1.40;1.30;;;24.20;61.00;26.50;96974.00;;;;5076024;28;20208;-88
2022/05/14 08:30:30;;;;;;;1.23;1.10;;;24.40;60.90;26.90;96970.00;;;;5084798;28;20200;-88
2022/05/14 08:32:58;;;;;;;1.30;1.20;;;24.60;60.80;27.40;96976.00;;;;5082812;28;20203;-87
2022/05/14 08:35:28;;;;;;;1.63;1.40;;;24.80;59.10;27.90;96979.00;;;;5079183;28;20202;-86
2022/05/14 08:37:56;;;;;;;1.40;0.80;;;25.10;59.50;28.30;96979.00;;;;5071113;28;20273;-88
2022/05/14 08:40:29;;;;;;;2.03;0.97;;;25.40;58.10;28.70;96990.00;;;;5083038;28;20221;-87
2022/05/14 08:43:01;;;;;;;1.23;0.70;;;25.70;56.90;29.20;96983.00;;;;5088469;28;20693;-86
2022/05/14 08:45:34;;;;;;;1.13;0.77;;;26.00;56.60;29.70;96986.00;;;;5082054;28;20220;-85
2022/05/14 08:48:07;;;;;;;1.33;0.60;;;26.30;56.30;30.20;96986.00;;;;5081653;28;20206;-87
2022/05/14 08:50:38;;;;;;;0.60;0.60;;;26.80;56.40;30.70;96984.00;;;;5085728;28;20215;-88
2022/05/14 08:53:10;;;;;;;0.95;0.68;;;27.10;56.10;31.10;96991.00;;;;5076345;28;20583;-87
2022/05/14 08:55:46;;;;;;;1.05;0.77;;;27.60;55.50;31.50;96986.00;;;;5077742;28;20278;-88
2022/05/14 08:58:27;;;;;;;0.60;0.60;;;28.00;54.60;31.90;96989.00;;;;5075558;28;20256;-87
2022/05/14 09:00:57;;;;;;;0.50;0.50;;;28.40;52.20;32.20;96983.00;;;;5082204;28;20284;-84
2022/05/14 09:03:24;;;;;;;0.73;0.60;;;28.80;52.90;32.50;96983.00;;;;5079537;28;20202;-82
2022/05/14 09:05:57;;;;;;;1.63;0.60;;;29.20;52.20;32.80;96982.00;;;;5080600;28;20310;-86
2022/05/14 09:08:25;;;;;;;0.95;0.52;;;29.60;50.70;33.00;96990.00;;;;5074036;28;20196;-86
2022/05/14 09:11:02;;;;;;;1.02;0.70;;;30.00;49.60;33.10;96990.00;;;;5082407;28;20307;-85
2022/05/14 09:13:43;;;;;;;2.30;0.57;;;30.40;47.00;33.30;96984.00;;;;5088666;28;20199;-86
2022/05/14 09:16:24;;;;;;;1.27;0.55;;;30.90;47.30;33.50;96989.00;;;;5074774;28;20222;-87
2022/05/14 09:18:53;;;;;;;1.52;0.80;;;31.40;46.80;33.80;96989.00;;;;5080312;28;20210;-83
2022/05/14 09:21:24;;;;;;;1.95;1.30;;;31.90;49.00;34.00;96986.00;;;;5084911;28;20207;-87
2022/05/14 09:23:56;;;;;;;0.90;0.63;;;32.30;47.00;34.20;96992.00;;;;5074593;28;20742;-84
2022/05/14 09:26:33;;;;;;;0.85;0.73;;;32.80;44.90;34.30;96991.00;;;;5088893;28;20199;-87
2022/05/14 09:29:22;;;;;;;2.05;0.90;;;33.10;43.40;34.50;96988.00;;;;5075807;28;20192;-86
2022/05/14 09:31:55;;;;;;;1.67;1.00;;;33.50;43.10;34.60;96990.00;;;;5070874;28;20708;-86
2022/05/14 09:34:24;;;;;;;1.23;0.70;;;33.80;43.70;34.80;96990.00;;;;5085302;28;20214;-84
2022/05/14 09:36:52;;;;;;;1.77;1.00;;;34.10;43.20;35.00;96990.00;;;;5075289;28;20192;-84
2022/05/14 09:39:22;;;;;;;1.58;1.00;;;34.40;42.70;35.10;96988.00;;;;5073615;28;20196;-86
2022/05/14 09:41:52;;;;;;;1.33;1.13;;;34.70;41.60;35.20;96987.00;;;;5078901;28;20212;-85
2022/05/14 09:44:25;;;;;;;3.25;1.23;;;35.00;42.40;35.30;96992.00;;;;5079462;28;20726;-86
2022/05/14 09:47:06;;;;;;;2.83;1.17;;;35.20;40.30;35.30;96992.00;;;;5082570;28;20203;-86
2022/05/14 09:49:33;;;;;;;1.67;0.50;;;35.30;39.80;35.30;96982.00;;;;5077755;28;20207;-86
2022/05/14 09:52:05;;;;;;;1.95;0.50;;;35.40;39.10;35.30;96985.00;;;;5088018;28;20322;-85
2022/05/14 09:54:41;;;;;;;1.48;0.57;;;35.60;38.80;35.30;96985.00;;;;5090051;28;20207;-86
2022/05/14 09:57:36;;;;;;;0.75;0.70;;;35.60;39.40;35.30;96987.00;;;;5084252;28;20217;-86
2022/05/14 10:00:16;;;;;;;0.90;0.63;;;35.70;39.10;35.30;96987.00;;;;5080972;28;20194;-88
2022/05/14 10:03:06;;;;;;;0.85;0.60;;;35.70;38.40;35.30;96978.00;;;;5086438;28;20195;-88
2022/05/14 10:06:02;;;;;;;1.42;0.70;;;35.80;37.50;35.10;96981.00;;;;5092029;28;20230;-87
2022/05/14 10:09:02;;;;;;;1.52;0.65;;;35.80;36.50;35.00;96980.00;;;;5095987;28;20208;-86
2022/05/14 10:11:35;;;;;;;1.83;0.90;;;35.80;36.50;34.90;96973.00;;;;5086408;28;20235;-88
2022/05/14 10:14:21;;;;;;;1.55;0.90;;;35.80;38.20;34.80;96983.00;;;;5078781;28;20227;-86
2022/05/14 10:17:11;;;;;;;0.88;0.77;;;35.70;36.50;34.70;96981.00;;;;5078127;28;20200;-85
2022/05/14 10:20:21;;;;;;;0.75;0.70;;;35.70;37.40;34.60;96968.00;;;;5079532;28;20203;-87
2022/05/14 10:29:27;;;;;;;1.50;0.80;;;35.60;38.00;34.40;96973.00;;;;5084706;28;20198;-87
2022/05/14 10:32:02;;;;;;;1.27;0.80;;;35.50;37.10;34.30;96967.00;;;;5084554;28;20258;-88
2022/05/14 10:34:44;;;;;;;0.85;0.80;;;35.40;37.30;34.30;96960.00;;;;5082138;28;20196;-87
2022/05/14 10:37:24;;;;;;;1.75;0.80;;;35.40;37.10;34.20;96968.00;;;;5084177;28;20573;-86
2022/05/14 10:40:03;;;;;;;1.35;0.93;;;35.30;36.70;34.20;96965.00;;;;5093685;28;20197;-87
2022/05/14 10:42:43;;;;;;;1.10;1.00;;;35.20;36.70;34.10;96959.00;;;;5092057;28;20598;-87
2022/05/14 10:45:16;;;;;;;0.95;0.90;;;35.10;35.90;34.00;96954.00;;;;5077698;28;20634;-88
2022/05/14 10:47:49;;;;;;;2.15;0.80;;;35.00;36.90;33.90;96949.00;;;;5081995;28;20684;-88
2022/05/14 10:50:21;;;;;;;1.27;0.82;;;34.80;36.70;33.70;96948.00;;;;5081173;28;20290;-88
2022/05/14 10:52:52;;;;;;;1.08;0.93;;;34.50;36.90;33.50;96950.00;;;;5071489;28;20303;-84
2022/05/14 10:55:25;;;;;;;1.15;0.85;;;34.10;36.30;33.20;96945.00;;;;5080685;28;20196;-87
2022/05/14 10:57:58;;;;;;;1.23;1.17;;;33.80;36.50;33.00;96944.00;;;;5090181;28;20203;-87
2022/05/14 11:00:40;;;;;;;0.98;0.80;;;33.40;36.20;32.70;96946.00;;;;5091081;28;20199;-88
2022/05/14 11:03:22;;;;;;;0.70;0.70;;;33.00;36.60;32.30;96948.00;;;;5090804;28;20669;-87
2022/05/14 11:06:08;;;;;;;1.38;0.70;;;32.60;36.90;32.00;96946.00;;;;5077876;28;20218;-87
2022/05/14 11:08:39;;;;;;;1.67;0.80;;;32.20;37.30;31.70;96936.00;;;;5084096;28;20203;-87
2022/05/14 11:11:14;;;;;;;0.93;0.88;;;31.80;37.30;31.30;96941.00;;;;5074948;28;20225;-87
2022/05/14 11:13:42;;;;;;;1.20;0.82;;;31.40;38.00;31.00;96937.00;;;;5075610;28;20202;-86
2022/05/14 11:16:12;;;;;;;2.22;0.90;;;31.00;38.00;30.80;96936.00;;;;5076091;28;20548;-86
2022/05/14 11:18:52;;;;;;;1.83;0.90;;;30.70;38.20;30.40;96934.00;;;;5079443;28;20564;-88
2022/05/14 11:21:33;;;;;;;2.42;0.98;;;30.30;37.80;30.10;96927.00;;;;5078082;28;20217;-89
2022/05/14 11:24:02;;;;;;;0.85;0.80;;;30.00;38.30;29.80;96920.00;;;;5082020;28;20194;-89
2022/05/14 11:26:30;;;;;;;3.50;0.95;;;29.60;39.10;29.50;96920.00;;;;5081091;28;20315;-86
2022/05/14 11:29:11;;;;;;;0.73;0.73;;;29.40;39.20;29.30;96921.00;;;;5079019;28;20200;-87
2022/05/14 11:31:51;;;;;;;2.33;0.80;;;29.10;39.80;29.00;96925.00;;;;5087652;28;20282;-88